createdAt,value
2018-04-29T00:00:04.024Z,11.90
2018-04-29T00:04:58.429Z,11.90
2018-04-29T00:09:52.815Z,11.90
2018-04-29T00:14:47.551Z,11.80
2018-04-29T00:19:43.069Z,11.60
2018-04-29T00:24:37.424Z,11.60
2018-04-29T00:29:31.952Z,11.50
2018-04-29T00:34:27.094Z,11.30
2018-04-29T00:39:21.465Z,11.20
2018-04-29T00:44:16.592Z,11.20
2018-04-29T00:49:11.743Z,11.10
2018-04-29T00:54:06.154Z,11.10
2018-04-29T00:59:00.534Z,11.10
2018-04-29T01:03:55.068Z,11.00
2018-04-29T01:08:49.416Z,10.80
2018-04-29T01:13:43.770Z,10.60
2018-04-29T01:18:38.094Z,10.40
2018-04-29T01:23:32.486Z,10.30
2018-04-29T01:28:26.834Z,10.30
2018-04-29T01:33:21.946Z,10.40
2018-04-29T01:38:16.430Z,10.30
2018-04-29T01:43:10.772Z,10.40
2018-04-29T01:48:06.059Z,10.20
2018-04-29T01:53:00.393Z,10.20
2018-04-29T01:57:55.512Z,10.00
2018-04-29T02:02:50.641Z,9.90
2018-04-29T02:07:46.063Z,9.80
2018-04-29T02:12:41.403Z,9.60
2018-04-29T02:17:35.791Z,9.60
2018-04-29T02:22:30.961Z,9.50
2018-04-29T02:27:25.307Z,9.50
2018-04-29T02:32:20.507Z,9.20
2018-04-29T02:37:15.286Z,9.20
2018-04-29T02:42:09.781Z,9.10
2018-04-29T02:47:04.214Z,9.00
2018-04-29T02:51:58.698Z,9.00
2018-04-29T02:56:53.200Z,8.90
2018-04-29T03:01:47.632Z,8.90
2018-04-29T03:06:41.761Z,8.80
2018-04-29T03:11:36.871Z,8.70
2018-04-29T03:16:31.234Z,8.70
2018-04-29T03:21:25.578Z,8.70
2018-04-29T03:26:19.684Z,8.70
2018-04-29T03:31:15.135Z,8.70
2018-04-29T03:36:09.499Z,8.60
2018-04-29T03:41:03.882Z,8.60
2018-04-29T03:45:58.342Z,8.60
2018-04-29T03:50:53.635Z,8.60
2018-04-29T03:55:47.985Z,8.60
2018-04-29T04:00:59.404Z,8.60
2018-04-29T04:05:53.731Z,8.70
2018-04-29T04:10:48.096Z,8.80
2018-04-29T04:15:42.430Z,8.90
2018-04-29T04:20:36.774Z,8.90
2018-04-29T04:25:31.116Z,8.90
2018-04-29T04:30:25.468Z,9.10
2018-04-29T04:35:20.585Z,9.40
2018-04-29T04:40:15.708Z,9.50
2018-04-29T04:45:10.458Z,9.50
2018-04-29T04:50:04.879Z,9.60
2018-04-29T04:54:59.259Z,9.80
2018-04-29T04:59:53.618Z,10.00
2018-04-29T05:04:48.739Z,10.50
2018-04-29T05:09:43.855Z,10.70
2018-04-29T05:14:39.030Z,10.80
2018-04-29T05:19:33.372Z,10.80
2018-04-29T05:24:27.484Z,11.00
2018-04-29T05:29:22.615Z,11.30
2018-04-29T05:34:17.078Z,11.30
2018-04-29T05:39:11.451Z,11.40
2018-04-29T05:44:05.923Z,11.40
2018-04-29T05:49:01.182Z,11.70
2018-04-29T05:53:55.702Z,11.60
2018-04-29T05:58:50.239Z,11.90
2018-04-29T06:03:44.915Z,11.90
2018-04-29T06:08:39.322Z,11.90
2018-04-29T06:13:34.568Z,12.00
2018-04-29T06:18:28.732Z,12.00
2018-04-29T06:23:23.600Z,12.10
2018-04-29T06:28:19.684Z,12.10
2018-04-29T06:33:15.053Z,12.30
2018-04-29T06:38:09.524Z,12.30
2018-04-29T06:43:04.050Z,12.50
2018-04-29T06:47:58.462Z,12.60
2018-04-29T06:52:53.626Z,12.80
2018-04-29T06:57:48.014Z,12.80
2018-04-29T07:02:43.146Z,12.80
2018-04-29T07:07:38.474Z,12.80
2018-04-29T07:12:32.867Z,12.70
2018-04-29T07:17:27.231Z,12.80
2018-04-29T07:22:21.712Z,13.00
2018-04-29T07:27:16.289Z,13.40
2018-04-29T07:32:10.878Z,16.50
2018-04-29T07:37:05.762Z,16.70
2018-04-29T07:42:00.132Z,16.70
2018-04-29T07:46:54.498Z,16.20
2018-04-29T07:51:49.658Z,14.90
2018-04-29T07:56:44.054Z,14.90
2018-04-29T08:01:38.464Z,14.40
2018-04-29T08:06:32.832Z,14.20
2018-04-29T08:11:27.987Z,14.10
2018-04-29T08:16:22.356Z,14.10
2018-04-29T08:21:17.550Z,13.90
2018-04-29T08:26:11.938Z,13.90
2018-04-29T08:31:06.290Z,14.10
2018-04-29T08:36:01.438Z,16.00
2018-04-29T08:40:55.858Z,16.00
2018-04-29T08:45:51.150Z,16.50
2018-04-29T08:50:45.604Z,16.50
2018-04-29T08:55:39.951Z,16.10
2018-04-29T09:00:34.316Z,15.80
2018-04-29T09:05:28.719Z,15.50
2018-04-29T09:10:23.135Z,15.30
2018-04-29T09:15:18.465Z,15.40
2018-04-29T09:20:13.592Z,16.10
2018-04-29T09:25:08.817Z,19.50
2018-04-29T09:30:03.970Z,26.90
2018-04-29T09:34:59.410Z,31.30
2018-04-29T09:39:53.851Z,31.10
2018-04-29T09:44:48.815Z,30.20
2018-04-29T09:49:43.166Z,30.10
2018-04-29T09:54:37.607Z,26.40
2018-04-29T09:59:31.988Z,23.60
2018-04-29T10:04:27.127Z,20.80
2018-04-29T10:09:21.471Z,20.70
2018-04-29T10:14:15.990Z,20.10
2018-04-29T10:19:11.484Z,19.60
2018-04-29T10:24:06.090Z,19.20
2018-04-29T10:29:00.372Z,19.20
2018-04-29T10:33:54.562Z,18.70
2018-04-29T10:38:48.994Z,18.30
2018-04-29T10:43:43.514Z,18.00
2018-04-29T10:48:37.978Z,18.10
2018-04-29T10:53:32.548Z,18.50
2018-04-29T10:58:27.705Z,18.60
2018-04-29T11:03:23.566Z,19.30
2018-04-29T11:08:18.654Z,19.30
2018-04-29T11:13:14.119Z,20.20
2018-04-29T11:18:08.238Z,20.20
2018-04-29T11:23:02.922Z,19.60
2018-04-29T11:27:57.374Z,18.80
2018-04-29T11:32:51.732Z,18.20
2018-04-29T11:37:46.286Z,17.80
2018-04-29T11:42:40.624Z,17.90
2018-04-29T11:47:35.224Z,18.30
2018-04-29T11:52:29.631Z,18.80
2018-04-29T11:57:24.067Z,18.90
2018-04-29T12:02:18.759Z,19.20
2018-04-29T12:07:13.343Z,19.70
2018-04-29T12:12:08.756Z,20.60
2018-04-29T12:17:03.414Z,20.50
2018-04-29T12:21:57.786Z,20.80
2018-04-29T12:26:52.189Z,21.10
2018-04-29T12:31:46.530Z,21.30
2018-04-29T12:36:40.901Z,21.20
2018-04-29T12:41:35.464Z,21.20
2018-04-29T12:46:30.008Z,21.50
2018-04-29T12:51:24.392Z,22.00
2018-04-29T12:56:19.512Z,21.50
2018-04-29T13:01:14.691Z,21.30
2018-04-29T13:06:09.153Z,21.30
2018-04-29T13:11:03.793Z,21.10
2018-04-29T13:15:58.150Z,21.00
2018-04-29T13:20:52.746Z,21.00
2018-04-29T13:25:47.162Z,21.30
2018-04-29T13:30:41.700Z,21.40
2018-04-29T13:35:35.903Z,21.60
2018-04-29T13:40:30.665Z,21.50
2018-04-29T13:45:25.064Z,21.60
2018-04-29T13:50:19.599Z,21.70
2018-04-29T13:55:14.488Z,22.00
2018-04-29T14:00:08.885Z,22.00
2018-04-29T14:05:03.587Z,22.10
2018-04-29T14:09:58.305Z,21.90
2018-04-29T14:14:52.692Z,22.00
2018-04-29T14:19:47.120Z,22.20
2018-04-29T14:24:41.823Z,22.20
2018-04-29T14:29:36.341Z,22.30
2018-04-29T14:34:31.591Z,22.10
2018-04-29T14:39:26.854Z,22.30
2018-04-29T14:44:21.294Z,22.30
2018-04-29T14:49:15.855Z,22.20
2018-04-29T14:54:10.032Z,22.20
2018-04-29T14:59:05.179Z,22.30
2018-04-29T15:03:59.437Z,22.30
2018-04-29T15:08:54.780Z,22.60
2018-04-29T15:13:49.258Z,22.60
2018-04-29T15:18:56.384Z,22.70
2018-04-29T15:23:50.760Z,22.70
2018-04-29T15:28:45.232Z,22.40
2018-04-29T15:33:39.655Z,22.40
2018-04-29T15:38:34.067Z,22.50
2018-04-29T15:43:28.446Z,22.50
2018-04-29T15:48:22.832Z,22.60
2018-04-29T15:53:17.419Z,22.50
2018-04-29T15:58:12.428Z,22.30
2018-04-29T16:03:06.808Z,22.20
2018-04-29T16:08:01.368Z,22.20
2018-04-29T16:12:56.117Z,22.30
2018-04-29T16:17:50.243Z,22.40
2018-04-29T16:22:45.470Z,22.60
2018-04-29T16:27:40.151Z,22.60
2018-04-29T16:32:34.920Z,22.70
2018-04-29T16:37:29.368Z,22.80
2018-04-29T16:42:24.244Z,22.70
2018-04-29T16:47:18.623Z,22.60
2018-04-29T16:52:13.002Z,22.60
2018-04-29T16:57:08.493Z,22.50
2018-04-29T17:02:03.404Z,22.50
2018-04-29T17:06:57.819Z,22.30
2018-04-29T17:11:52.193Z,22.00
2018-04-29T17:16:46.556Z,21.70
2018-04-29T17:21:41.033Z,21.40
2018-04-29T17:26:35.415Z,21.20
2018-04-29T17:31:29.789Z,21.00
2018-04-29T17:36:24.157Z,20.90
2018-04-29T17:41:18.528Z,20.80
2018-04-29T17:46:15.397Z,20.70
2018-04-29T17:51:09.967Z,20.60
2018-04-29T17:56:04.465Z,20.50
2018-04-29T18:00:59.160Z,20.30
2018-04-29T18:05:53.634Z,20.10
2018-04-29T18:10:48.089Z,20.00
2018-04-29T18:15:42.547Z,19.80
2018-04-29T18:20:36.974Z,19.70
2018-04-29T18:25:32.481Z,19.50
2018-04-29T18:30:26.832Z,19.50
2018-04-29T18:35:21.285Z,19.40
2018-04-29T18:40:15.556Z,19.30
2018-04-29T18:45:10.065Z,19.20
2018-04-29T18:50:04.266Z,19.10
2018-04-29T18:54:58.658Z,19.10
2018-04-29T18:59:53.218Z,19.00
2018-04-29T19:04:47.783Z,18.90
2018-04-29T19:09:42.384Z,18.90
2018-04-29T19:14:36.864Z,18.90
2018-04-29T19:19:31.234Z,18.90
2018-04-29T19:24:26.862Z,18.90
2018-04-29T19:29:22.285Z,18.90
2018-04-29T19:34:16.758Z,18.80
2018-04-29T19:39:11.303Z,18.90
2018-04-29T19:44:06.468Z,18.80
2018-04-29T19:49:00.850Z,18.80
2018-04-29T19:53:55.316Z,18.80
2018-04-29T19:58:49.687Z,18.80
2018-04-29T20:03:44.355Z,18.70
2018-04-29T20:08:39.486Z,18.70
2018-04-29T20:13:34.392Z,18.70
2018-04-29T20:18:29.570Z,18.70
2018-04-29T20:23:24.434Z,18.60
2018-04-29T20:28:19.883Z,18.60
2018-04-29T20:33:14.301Z,18.60
2018-04-29T20:38:08.710Z,18.50
2018-04-29T20:43:03.265Z,18.50
2018-04-29T20:47:58.382Z,18.40
2018-04-29T20:52:52.756Z,18.40
2018-04-29T20:57:47.046Z,18.30
2018-04-29T21:02:41.478Z,18.30
2018-04-29T21:07:35.686Z,18.20
2018-04-29T21:12:30.124Z,18.20
2018-04-29T21:17:25.607Z,18.10
2018-04-29T21:22:20.114Z,18.10
2018-04-29T21:27:14.480Z,18.00
2018-04-29T21:32:08.842Z,17.90
2018-04-29T21:37:03.987Z,17.80
2018-04-29T21:41:58.422Z,17.80
2018-04-29T21:46:52.827Z,17.80
2018-04-29T21:51:47.526Z,17.70
2018-04-29T21:56:41.960Z,17.70
2018-04-29T22:01:37.188Z,17.60
2018-04-29T22:06:31.800Z,17.60
2018-04-29T22:11:26.285Z,17.50
2018-04-29T22:16:20.743Z,17.70
2018-04-29T22:21:15.169Z,17.60
2018-04-29T22:26:10.220Z,17.30
2018-04-29T22:31:04.602Z,17.30
2018-04-29T22:35:58.988Z,17.10
2018-04-29T22:40:53.408Z,16.90
2018-04-29T22:45:47.770Z,16.80
2018-04-29T22:50:42.266Z,16.70
2018-04-29T22:55:37.399Z,16.40
2018-04-29T23:00:31.864Z,16.30
2018-04-29T23:05:26.213Z,16.20
2018-04-29T23:10:20.561Z,15.90
2018-04-29T23:15:14.938Z,15.80
2018-04-29T23:20:09.304Z,15.60
2018-04-29T23:25:04.405Z,15.30
2018-04-29T23:29:59.620Z,15.20
2018-04-29T23:34:54.032Z,15.10
2018-04-29T23:39:49.160Z,14.90
2018-04-29T23:44:44.260Z,14.70
2018-04-29T23:49:38.740Z,14.60
2018-04-29T23:54:33.154Z,14.50
2018-04-29T23:59:27.884Z,14.40
